sensor_id;sensor_type;location;lat;lon;timestamp;temperature;humidity
76104;HTU21D;64831;44.870;37.336;2023-02-24T00:01:10;-4.89;66.12
76104;HTU21D;64831;44.870;37.336;2023-02-24T00:03:37;-4.87;66.05
76104;HTU21D;64831;44.870;37.336;2023-02-24T00:06:04;-4.87;65.83
76104;HTU21D;64831;44.870;37.336;2023-02-24T00:08:40;-4.95;66.06
76104;HTU21D;64831;44.870;37.336;2023-02-24T00:11:16;-5.00;66.36
76104;HTU21D;64831;44.870;37.336;2023-02-24T00:13:44;-5.01;66.32
76104;HTU21D;64831;44.870;37.336;2023-02-24T00:16:13;-5.08;66.57
76104;HTU21D;64831;44.870;37.336;2023-02-24T00:18:42;-5.07;66.26
76104;HTU21D;64831;44.870;37.336;2023-02-24T00:21:12;-5.08;66.26
76104;HTU21D;64831;44.870;37.336;2023-02-24T00:23:38;-5.09;66.44
76104;HTU21D;64831;44.870;37.336;2023-02-24T00:26:06;-5.11;66.31
76104;HTU21D;64831;44.870;37.336;2023-02-24T00:28:33;-5.13;66.69
76104;HTU21D;64831;44.870;37.336;2023-02-24T00:31:04;-5.10;66.62
76104;HTU21D;64831;44.870;37.336;2023-02-24T00:33:32;-5.09;66.64
76104;HTU21D;64831;44.870;37.336;2023-02-24T00:36:25;-5.07;66.65
76104;HTU21D;64831;44.870;37.336;2023-02-24T00:38:56;-5.04;66.40
76104;HTU21D;64831;44.870;37.336;2023-02-24T00:41:30;-4.99;66.04
76104;HTU21D;64831;44.870;37.336;2023-02-24T00:43:58;-4.99;66.00
76104;HTU21D;64831;44.870;37.336;2023-02-24T00:46:33;-4.96;65.72
76104;HTU21D;64831;44.870;37.336;2023-02-24T00:49:00;-4.98;65.46
76104;HTU21D;64831;44.870;37.336;2023-02-24T00:51:34;-5.04;65.50
76104;HTU21D;64831;44.870;37.336;2023-02-24T00:54:01;-5.08;65.92
76104;HTU21D;64831;44.870;37.336;2023-02-24T00:56:28;-5.07;66.14
76104;HTU21D;64831;44.870;37.336;2023-02-24T00:58:56;-5.02;66.04
76104;HTU21D;64831;44.870;37.336;2023-02-24T01:01:25;-4.99;65.93
76104;HTU21D;64831;44.870;37.336;2023-02-24T01:03:52;-4.98;66.05
76104;HTU21D;64831;44.870;37.336;2023-02-24T01:06:24;-4.98;66.41
76104;HTU21D;64831;44.870;37.336;2023-02-24T01:08:52;-4.96;66.15
76104;HTU21D;64831;44.870;37.336;2023-02-24T01:11:21;-4.99;66.02
76104;HTU21D;64831;44.870;37.336;2023-02-24T01:14:08;-4.99;65.93
76104;HTU21D;64831;44.870;37.336;2023-02-24T01:16:34;-4.98;66.02
76104;HTU21D;64831;44.870;37.336;2023-02-24T01:19:01;-4.98;66.08
76104;HTU21D;64831;44.870;37.336;2023-02-24T01:21:27;-4.96;66.10
76104;HTU21D;64831;44.870;37.336;2023-02-24T01:23:54;-4.96;66.08
76104;HTU21D;64831;44.870;37.336;2023-02-24T01:26:20;-4.91;65.65
76104;HTU21D;64831;44.870;37.336;2023-02-24T01:28:46;-4.94;65.78
76104;HTU21D;64831;44.870;37.336;2023-02-24T01:31:15;-4.96;65.69
76104;HTU21D;64831;44.870;37.336;2023-02-24T01:33:49;-4.97;65.88
76104;HTU21D;64831;44.870;37.336;2023-02-24T01:36:25;-4.98;65.74
76104;HTU21D;64831;44.870;37.336;2023-02-24T01:38:53;-4.96;65.75
76104;HTU21D;64831;44.870;37.336;2023-02-24T01:41:21;-4.98;65.63
76104;HTU21D;64831;44.870;37.336;2023-02-24T01:46:20;-4.98;65.72
76104;HTU21D;64831;44.870;37.336;2023-02-24T01:48:49;-4.99;65.68
76104;HTU21D;64831;44.870;37.336;2023-02-24T01:51:17;-4.99;66.03
76104;HTU21D;64831;44.870;37.336;2023-02-24T01:53:44;-4.99;65.95
76104;HTU21D;64831;44.870;37.336;2023-02-24T01:56:10;-4.98;65.80
76104;HTU21D;64831;44.870;37.336;2023-02-24T01:58:38;-4.95;65.51
76104;HTU21D;64831;44.870;37.336;2023-02-24T02:01:06;-4.95;65.41
76104;HTU21D;64831;44.870;37.336;2023-02-24T02:03:36;-4.97;65.57
76104;HTU21D;64831;44.870;37.336;2023-02-24T02:06:09;-4.98;65.62
76104;HTU21D;64831;44.870;37.336;2023-02-24T02:08:39;-4.95;65.59
76104;HTU21D;64831;44.870;37.336;2023-02-24T02:11:11;-4.95;65.56
76104;HTU21D;64831;44.870;37.336;2023-02-24T02:13:40;-4.97;65.92
76104;HTU21D;64831;44.870;37.336;2023-02-24T02:18:57;-4.88;65.55
76104;HTU21D;64831;44.870;37.336;2023-02-24T02:42:29;-4.91;65.85
76104;HTU21D;64831;44.870;37.336;2023-02-24T02:48:29;-4.95;65.85
76104;HTU21D;64831;44.870;37.336;2023-02-24T02:51:15;-4.96;65.78
76104;HTU21D;64831;44.870;37.336;2023-02-24T02:54:01;-4.96;65.85
76104;HTU21D;64831;44.870;37.336;2023-02-24T02:56:36;-4.95;65.66
76104;HTU21D;64831;44.870;37.336;2023-02-24T02:59:03;-4.93;65.66
76104;HTU21D;64831;44.870;37.336;2023-02-24T03:01:35;-4.94;65.84
76104;HTU21D;64831;44.870;37.336;2023-02-24T03:04:05;-4.91;65.69
76104;HTU21D;64831;44.870;37.336;2023-02-24T03:09:34;-4.93;65.88
76104;HTU21D;64831;44.870;37.336;2023-02-24T03:12:07;-4.90;65.81
76104;HTU21D;64831;44.870;37.336;2023-02-24T03:14:38;-4.88;65.82
76104;HTU21D;64831;44.870;37.336;2023-02-24T03:17:20;-4.83;65.79
76104;HTU21D;64831;44.870;37.336;2023-02-24T03:19:49;-4.76;65.60
76104;HTU21D;64831;44.870;37.336;2023-02-24T03:22:38;-4.72;65.56
76104;HTU21D;64831;44.870;37.336;2023-02-24T03:25:08;-4.66;65.47
76104;HTU21D;64831;44.870;37.336;2023-02-24T03:27:43;-4.65;65.46
76104;HTU21D;64831;44.870;37.336;2023-02-24T03:30:15;-4.64;65.29
76104;HTU21D;64831;44.870;37.336;2023-02-24T03:33:18;-4.65;65.39
76104;HTU21D;64831;44.870;37.336;2023-02-24T03:35:46;-4.66;65.72
76104;HTU21D;64831;44.870;37.336;2023-02-24T03:38:16;-4.66;65.56
76104;HTU21D;64831;44.870;37.336;2023-02-24T03:40:43;-4.65;65.41
76104;HTU21D;64831;44.870;37.336;2023-02-24T03:43:30;-4.64;65.26
76104;HTU21D;64831;44.870;37.336;2023-02-24T03:45:58;-4.61;64.96
76104;HTU21D;64831;44.870;37.336;2023-02-24T03:48:29;-4.57;64.95
76104;HTU21D;64831;44.870;37.336;2023-02-24T03:50:58;-4.52;64.52
76104;HTU21D;64831;44.870;37.336;2023-02-24T03:54:05;-4.40;64.29
76104;HTU21D;64831;44.870;37.336;2023-02-24T03:59:30;-4.23;63.84
76104;HTU21D;64831;44.870;37.336;2023-02-24T04:02:07;-4.20;62.95
76104;HTU21D;64831;44.870;37.336;2023-02-24T04:04:49;-4.15;63.12
76104;HTU21D;64831;44.870;37.336;2023-02-24T04:10:20;-4.11;62.55
76104;HTU21D;64831;44.870;37.336;2023-02-24T04:13:15;-4.17;62.21
76104;HTU21D;64831;44.870;37.336;2023-02-24T04:15:55;-4.17;62.35
76104;HTU21D;64831;44.870;37.336;2023-02-24T04:18:29;-4.21;62.44
76104;HTU21D;64831;44.870;37.336;2023-02-24T04:20:58;-4.21;62.57
76104;HTU21D;64831;44.870;37.336;2023-02-24T04:23:30;-4.21;62.58
76104;HTU21D;64831;44.870;37.336;2023-02-24T04:25:57;-4.23;62.64
76104;HTU21D;64831;44.870;37.336;2023-02-24T04:28:25;-4.22;62.67
76104;HTU21D;64831;44.870;37.336;2023-02-24T04:30:56;-4.26;62.57
76104;HTU21D;64831;44.870;37.336;2023-02-24T04:33:24;-4.27;62.69
76104;HTU21D;64831;44.870;37.336;2023-02-24T04:35:52;-4.24;62.79
76104;HTU21D;64831;44.870;37.336;2023-02-24T04:38:19;-4.22;62.82
76104;HTU21D;64831;44.870;37.336;2023-02-24T04:40:45;-4.22;62.75
76104;HTU21D;64831;44.870;37.336;2023-02-24T04:43:11;-4.19;62.77
76104;HTU21D;64831;44.870;37.336;2023-02-24T04:45:37;-4.16;62.79
76104;HTU21D;64831;44.870;37.336;2023-02-24T04:48:07;-4.14;62.62
76104;HTU21D;64831;44.870;37.336;2023-02-24T04:50:41;-4.13;62.58
76104;HTU21D;64831;44.870;37.336;2023-02-24T04:53:13;-4.09;62.63
76104;HTU21D;64831;44.870;37.336;2023-02-24T04:55:42;-4.06;62.62
76104;HTU21D;64831;44.870;37.336;2023-02-24T04:58:13;-4.02;62.63
76104;HTU21D;64831;44.870;37.336;2023-02-24T05:00:45;-3.98;62.57
76104;HTU21D;64831;44.870;37.336;2023-02-24T05:03:13;-3.95;62.60
76104;HTU21D;64831;44.870;37.336;2023-02-24T05:05:50;-3.92;62.58
76104;HTU21D;64831;44.870;37.336;2023-02-24T05:08:17;-3.90;62.47
76104;HTU21D;64831;44.870;37.336;2023-02-24T05:10:45;-3.90;62.45
76104;HTU21D;64831;44.870;37.336;2023-02-24T05:13:14;-3.84;62.52
76104;HTU21D;64831;44.870;37.336;2023-02-24T05:15:41;-3.79;62.53
76104;HTU21D;64831;44.870;37.336;2023-02-24T05:18:10;-3.75;62.51
76104;HTU21D;64831;44.870;37.336;2023-02-24T05:20:41;-3.70;62.61
76104;HTU21D;64831;44.870;37.336;2023-02-24T05:23:27;-3.63;62.27
76104;HTU21D;64831;44.870;37.336;2023-02-24T05:25:57;-3.55;62.42
76104;HTU21D;64831;44.870;37.336;2023-02-24T05:28:24;-3.48;62.12
76104;HTU21D;64831;44.870;37.336;2023-02-24T05:30:53;-3.41;62.06
76104;HTU21D;64831;44.870;37.336;2023-02-24T05:33:20;-3.32;62.22
76104;HTU21D;64831;44.870;37.336;2023-02-24T05:35:48;-3.23;62.06
76104;HTU21D;64831;44.870;37.336;2023-02-24T05:38:16;-3.19;61.84
76104;HTU21D;64831;44.870;37.336;2023-02-24T05:40:45;-3.16;61.75
76104;HTU21D;64831;44.870;37.336;2023-02-24T05:43:14;-3.09;61.69
76104;HTU21D;64831;44.870;37.336;2023-02-24T05:45:45;-3.04;61.57
76104;HTU21D;64831;44.870;37.336;2023-02-24T05:48:11;-2.93;61.74
76104;HTU21D;64831;44.870;37.336;2023-02-24T05:50:50;-2.78;61.76
76104;HTU21D;64831;44.870;37.336;2023-02-24T05:53:16;-2.66;61.91
76104;HTU21D;64831;44.870;37.336;2023-02-24T05:55:43;-2.49;61.83
76104;HTU21D;64831;44.870;37.336;2023-02-24T05:58:09;-2.29;62.24
76104;HTU21D;64831;44.870;37.336;2023-02-24T06:00:35;-2.01;62.74
76104;HTU21D;64831;44.870;37.336;2023-02-24T06:03:04;-1.71;61.60
76104;HTU21D;64831;44.870;37.336;2023-02-24T06:05:52;-1.45;60.60
76104;HTU21D;64831;44.870;37.336;2023-02-24T06:08:18;-1.28;60.14
76104;HTU21D;64831;44.870;37.336;2023-02-24T06:10:44;-1.13;60.73
76104;HTU21D;64831;44.870;37.336;2023-02-24T06:13:12;-0.93;61.43
76104;HTU21D;64831;44.870;37.336;2023-02-24T06:15:38;-0.69;61.16
76104;HTU21D;64831;44.870;37.336;2023-02-24T06:18:05;-0.52;59.67
76104;HTU21D;64831;44.870;37.336;2023-02-24T06:20:32;-0.40;58.86
76104;HTU21D;64831;44.870;37.336;2023-02-24T06:22:58;-0.28;58.58
76104;HTU21D;64831;44.870;37.336;2023-02-24T06:25:25;0.01;60.38
76104;HTU21D;64831;44.870;37.336;2023-02-24T06:27:54;0.37;60.37
76104;HTU21D;64831;44.870;37.336;2023-02-24T06:30:24;0.65;59.53
76104;HTU21D;64831;44.870;37.336;2023-02-24T06:32:52;0.79;58.86
76104;HTU21D;64831;44.870;37.336;2023-02-24T06:35:19;0.97;58.22
76104;HTU21D;64831;44.870;37.336;2023-02-24T06:37:46;1.32;59.48
76104;HTU21D;64831;44.870;37.336;2023-02-24T06:40:12;1.81;60.13
76104;HTU21D;64831;44.870;37.336;2023-02-24T06:42:49;2.43;60.67
76104;HTU21D;64831;44.870;37.336;2023-02-24T06:45:18;3.01;58.87
76104;HTU21D;64831;44.870;37.336;2023-02-24T06:47:44;3.46;55.98
76104;HTU21D;64831;44.870;37.336;2023-02-24T06:50:20;3.89;54.53
76104;HTU21D;64831;44.870;37.336;2023-02-24T06:52:47;4.44;54.48
76104;HTU21D;64831;44.870;37.336;2023-02-24T06:55:14;5.15;52.63
76104;HTU21D;64831;44.870;37.336;2023-02-24T06:58:01;5.77;50.85
76104;HTU21D;64831;44.870;37.336;2023-02-24T07:00:33;6.08;49.56
76104;HTU21D;64831;44.870;37.336;2023-02-24T07:03:06;6.20;48.31
76104;HTU21D;64831;44.870;37.336;2023-02-24T07:05:44;6.14;46.35
76104;HTU21D;64831;44.870;37.336;2023-02-24T07:08:19;5.97;45.89
76104;HTU21D;64831;44.870;37.336;2023-02-24T07:10:55;6.07;45.23
76104;HTU21D;64831;44.870;37.336;2023-02-24T07:13:22;6.29;45.25
76104;HTU21D;64831;44.870;37.336;2023-02-24T07:15:49;6.94;44.95
76104;HTU21D;64831;44.870;37.336;2023-02-24T07:18:17;7.43;44.90
76104;HTU21D;64831;44.870;37.336;2023-02-24T07:20:44;7.83;42.21
76104;HTU21D;64831;44.870;37.336;2023-02-24T07:23:12;8.20;42.74
76104;HTU21D;64831;44.870;37.336;2023-02-24T07:25:38;8.52;41.20
76104;HTU21D;64831;44.870;37.336;2023-02-24T07:28:06;8.51;40.33
76104;HTU21D;64831;44.870;37.336;2023-02-24T07:30:32;8.21;39.73
76104;HTU21D;64831;44.870;37.336;2023-02-24T07:33:01;8.03;40.09
76104;HTU21D;64831;44.870;37.336;2023-02-24T07:35:29;8.15;42.49
76104;HTU21D;64831;44.870;37.336;2023-02-24T07:37:55;8.58;43.55
76104;HTU21D;64831;44.870;37.336;2023-02-24T07:40:35;9.39;42.45
76104;HTU21D;64831;44.870;37.336;2023-02-24T07:43:01;10.11;44.22
76104;HTU21D;64831;44.870;37.336;2023-02-24T07:45:27;10.75;43.21
76104;HTU21D;64831;44.870;37.336;2023-02-24T07:47:54;11.12;41.21
76104;HTU21D;64831;44.870;37.336;2023-02-24T07:50:20;11.15;40.63
76104;HTU21D;64831;44.870;37.336;2023-02-24T07:52:49;10.98;39.80
76104;HTU21D;64831;44.870;37.336;2023-02-24T07:55:16;10.74;40.04
76104;HTU21D;64831;44.870;37.336;2023-02-24T07:57:42;10.38;39.46
76104;HTU21D;64831;44.870;37.336;2023-02-24T08:00:15;10.12;39.94
76104;HTU21D;64831;44.870;37.336;2023-02-24T08:02:47;9.88;40.35
76104;HTU21D;64831;44.870;37.336;2023-02-24T08:05:16;9.89;41.38
76104;HTU21D;64831;44.870;37.336;2023-02-24T08:07:45;10.12;42.07
76104;HTU21D;64831;44.870;37.336;2023-02-24T08:10:18;10.49;43.06
76104;HTU21D;64831;44.870;37.336;2023-02-24T08:12:54;11.04;43.73
76104;HTU21D;64831;44.870;37.336;2023-02-24T08:15:24;11.62;42.29
76104;HTU21D;64831;44.870;37.336;2023-02-24T08:17:55;12.07;41.28
76104;HTU21D;64831;44.870;37.336;2023-02-24T08:20:25;12.50;41.63
76104;HTU21D;64831;44.870;37.336;2023-02-24T08:22:53;12.80;41.08
76104;HTU21D;64831;44.870;37.336;2023-02-24T08:25:27;12.90;37.66
76104;HTU21D;64831;44.870;37.336;2023-02-24T08:28:11;13.04;38.57
76104;HTU21D;64831;44.870;37.336;2023-02-24T08:30:40;13.08;37.98
76104;HTU21D;64831;44.870;37.336;2023-02-24T08:33:12;13.23;38.08
76104;HTU21D;64831;44.870;37.336;2023-02-24T08:35:41;13.26;37.65
76104;HTU21D;64831;44.870;37.336;2023-02-24T08:38:19;13.25;36.84
76104;HTU21D;64831;44.870;37.336;2023-02-24T08:40:50;13.11;35.70
76104;HTU21D;64831;44.870;37.336;2023-02-24T08:45:49;12.81;35.33
76104;HTU21D;64831;44.870;37.336;2023-02-24T08:48:19;12.80;35.57
76104;HTU21D;64831;44.870;37.336;2023-02-24T08:51:00;12.76;35.82
76104;HTU21D;64831;44.870;37.336;2023-02-24T08:53:27;12.78;35.97
76104;HTU21D;64831;44.870;37.336;2023-02-24T08:55:58;12.72;35.41
76104;HTU21D;64831;44.870;37.336;2023-02-24T08:58:25;12.73;35.63
76104;HTU21D;64831;44.870;37.336;2023-02-24T09:00:55;12.60;35.30
76104;HTU21D;64831;44.870;37.336;2023-02-24T09:03:24;12.47;34.79
76104;HTU21D;64831;44.870;37.336;2023-02-24T09:06:12;12.48;34.99
76104;HTU21D;64831;44.870;37.336;2023-02-24T09:08:43;12.28;35.04
76104;HTU21D;64831;44.870;37.336;2023-02-24T09:11:11;12.26;35.33
76104;HTU21D;64831;44.870;37.336;2023-02-24T09:13:41;12.19;35.45
76104;HTU21D;64831;44.870;37.336;2023-02-24T09:16:18;12.13;35.17
76104;HTU21D;64831;44.870;37.336;2023-02-24T09:18:44;12.15;35.25
76104;HTU21D;64831;44.870;37.336;2023-02-24T09:21:11;12.19;35.43
76104;HTU21D;64831;44.870;37.336;2023-02-24T09:24:00;12.19;35.85
76104;HTU21D;64831;44.870;37.336;2023-02-24T09:26:34;12.15;35.85
76104;HTU21D;64831;44.870;37.336;2023-02-24T09:29:10;11.89;35.23
76104;HTU21D;64831;44.870;37.336;2023-02-24T09:31:54;11.70;36.12
76104;HTU21D;64831;44.870;37.336;2023-02-24T12:20:53;8.21;46.41
76104;HTU21D;64831;44.870;37.336;2023-02-24T12:23:28;8.17;46.25
76104;HTU21D;64831;44.870;37.336;2023-02-24T12:29:03;8.19;45.85
76104;HTU21D;64831;44.870;37.336;2023-02-24T12:31:42;8.17;45.76
76104;HTU21D;64831;44.870;37.336;2023-02-24T12:34:22;8.14;45.68
76104;HTU21D;64831;44.870;37.336;2023-02-24T12:42:25;8.27;45.02
76104;HTU21D;64831;44.870;37.336;2023-02-24T12:50:26;8.21;44.33
76104;HTU21D;64831;44.870;37.336;2023-02-24T12:53:20;8.21;44.15
76104;HTU21D;64831;44.870;37.336;2023-02-24T12:56:22;8.23;43.75
76104;HTU21D;64831;44.870;37.336;2023-02-24T12:58:47;8.21;42.50
76104;HTU21D;64831;44.870;37.336;2023-02-24T13:01:30;8.17;42.10
76104;HTU21D;64831;44.870;37.336;2023-02-24T13:04:12;8.17;42.27
76104;HTU21D;64831;44.870;37.336;2023-02-24T13:12:52;8.22;39.91
76104;HTU21D;64831;44.870;37.336;2023-02-24T13:15:25;8.15;40.38
76104;HTU21D;64831;44.870;37.336;2023-02-24T13:17:53;8.11;40.83
76104;HTU21D;64831;44.870;37.336;2023-02-24T13:22:51;7.91;39.91
76104;HTU21D;64831;44.870;37.336;2023-02-24T13:25:20;7.81;40.17
76104;HTU21D;64831;44.870;37.336;2023-02-24T13:27:58;7.68;39.89
76104;HTU21D;64831;44.870;37.336;2023-02-24T13:33:04;7.47;40.78
76104;HTU21D;64831;44.870;37.336;2023-02-24T13:35:35;7.39;40.46
76104;HTU21D;64831;44.870;37.336;2023-02-24T13:38:19;7.30;40.42
76104;HTU21D;64831;44.870;37.336;2023-02-24T13:40:46;7.20;40.81
76104;HTU21D;64831;44.870;37.336;2023-02-24T13:43:24;7.13;41.26
76104;HTU21D;64831;44.870;37.336;2023-02-24T13:45:57;7.04;41.79
76104;HTU21D;64831;44.870;37.336;2023-02-24T13:51:29;6.88;42.32
76104;HTU21D;64831;44.870;37.336;2023-02-24T14:00:20;6.71;43.96
76104;HTU21D;64831;44.870;37.336;2023-02-24T14:02:51;6.68;44.29
76104;HTU21D;64831;44.870;37.336;2023-02-24T14:05:34;6.69;44.27
76104;HTU21D;64831;44.870;37.336;2023-02-24T14:08:02;6.65;43.84
76104;HTU21D;64831;44.870;37.336;2023-02-24T14:10:30;6.58;44.11
76104;HTU21D;64831;44.870;37.336;2023-02-24T14:13:15;6.53;44.29
76104;HTU21D;64831;44.870;37.336;2023-02-24T14:15:43;6.48;44.46
76104;HTU21D;64831;44.870;37.336;2023-02-24T14:18:21;6.43;44.72
76104;HTU21D;64831;44.870;37.336;2023-02-24T14:20:47;6.37;44.92
76104;HTU21D;64831;44.870;37.336;2023-02-24T14:23:21;6.35;45.13
76104;HTU21D;64831;44.870;37.336;2023-02-24T14:25:53;6.34;45.22
76104;HTU21D;64831;44.870;37.336;2023-02-24T14:28:22;6.29;45.48
76104;HTU21D;64831;44.870;37.336;2023-02-24T14:30:54;6.28;45.45
76104;HTU21D;64831;44.870;37.336;2023-02-24T14:33:43;6.23;45.48
76104;HTU21D;64831;44.870;37.336;2023-02-24T14:36:16;6.17;45.67
76104;HTU21D;64831;44.870;37.336;2023-02-24T14:38:43;6.14;45.78
76104;HTU21D;64831;44.870;37.336;2023-02-24T14:41:23;6.11;45.91
76104;HTU21D;64831;44.870;37.336;2023-02-24T14:43:50;6.07;46.28
76104;HTU21D;64831;44.870;37.336;2023-02-24T14:46:17;6.01;46.39
76104;HTU21D;64831;44.870;37.336;2023-02-24T14:48:43;5.97;46.87
76104;HTU21D;64831;44.870;37.336;2023-02-24T14:51:32;5.93;47.02
76104;HTU21D;64831;44.870;37.336;2023-02-24T14:54:04;5.87;47.21
76104;HTU21D;64831;44.870;37.336;2023-02-24T14:56:32;5.85;47.23
76104;HTU21D;64831;44.870;37.336;2023-02-24T14:59:11;5.80;47.63
76104;HTU21D;64831;44.870;37.336;2023-02-24T15:01:43;5.77;47.84
76104;HTU21D;64831;44.870;37.336;2023-02-24T15:06:57;5.68;48.72
76104;HTU21D;64831;44.870;37.336;2023-02-24T15:09:32;5.66;48.82
76104;HTU21D;64831;44.870;37.336;2023-02-24T15:12:07;5.64;49.16
76104;HTU21D;64831;44.870;37.336;2023-02-24T15:14:34;5.63;48.86
76104;HTU21D;64831;44.870;37.336;2023-02-24T15:17:03;5.60;48.99
76104;HTU21D;64831;44.870;37.336;2023-02-24T15:19:38;5.56;49.31
76104;HTU21D;64831;44.870;37.336;2023-02-24T15:25:08;5.50;49.89
76104;HTU21D;64831;44.870;37.336;2023-02-24T15:27:35;5.47;50.09
76104;HTU21D;64831;44.870;37.336;2023-02-24T15:30:07;5.45;50.83
76104;HTU21D;64831;44.870;37.336;2023-02-24T15:32:36;5.43;51.42
76104;HTU21D;64831;44.870;37.336;2023-02-24T15:35:03;5.43;51.32
76104;HTU21D;64831;44.870;37.336;2023-02-24T15:37:39;5.43;51.71
76104;HTU21D;64831;44.870;37.336;2023-02-24T15:40:22;5.43;51.39
76104;HTU21D;64831;44.870;37.336;2023-02-24T15:42:59;5.43;52.37
76104;HTU21D;64831;44.870;37.336;2023-02-24T15:45:34;5.43;52.57
76104;HTU21D;64831;44.870;37.336;2023-02-24T15:48:23;5.42;52.36
76104;HTU21D;64831;44.870;37.336;2023-02-24T15:50:48;5.42;53.10
76104;HTU21D;64831;44.870;37.336;2023-02-24T15:53:17;5.43;53.33
76104;HTU21D;64831;44.870;37.336;2023-02-24T15:55:43;5.43;53.81
76104;HTU21D;64831;44.870;37.336;2023-02-24T15:58:15;5.45;53.59
76104;HTU21D;64831;44.870;37.336;2023-02-24T16:00:43;5.47;53.30
76104;HTU21D;64831;44.870;37.336;2023-02-24T16:03:10;5.48;52.95
76104;HTU21D;64831;44.870;37.336;2023-02-24T16:05:37;5.46;53.49
76104;HTU21D;64831;44.870;37.336;2023-02-24T16:08:03;5.47;53.84
76104;HTU21D;64831;44.870;37.336;2023-02-24T16:10:29;5.48;53.29
76104;HTU21D;64831;44.870;37.336;2023-02-24T16:12:58;5.48;53.57
76104;HTU21D;64831;44.870;37.336;2023-02-24T16:15:30;5.48;53.59
76104;HTU21D;64831;44.870;37.336;2023-02-24T16:17:58;5.48;53.46
76104;HTU21D;64831;44.870;37.336;2023-02-24T16:20:28;5.48;54.21
76104;HTU21D;64831;44.870;37.336;2023-02-24T16:23:01;5.49;54.07
76104;HTU21D;64831;44.870;37.336;2023-02-24T16:25:28;5.49;54.33
76104;HTU21D;64831;44.870;37.336;2023-02-24T16:27:54;5.48;54.66
76104;HTU21D;64831;44.870;37.336;2023-02-24T16:30:26;5.48;54.33
76104;HTU21D;64831;44.870;37.336;2023-02-24T16:32:58;5.47;54.36
76104;HTU21D;64831;44.870;37.336;2023-02-24T16:35:25;5.48;54.56
76104;HTU21D;64831;44.870;37.336;2023-02-24T16:37:51;5.46;54.94
76104;HTU21D;64831;44.870;37.336;2023-02-24T16:42:50;5.48;55.13
76104;HTU21D;64831;44.870;37.336;2023-02-24T16:45:17;5.47;55.68
76104;HTU21D;64831;44.870;37.336;2023-02-24T16:47:43;5.48;55.04
76104;HTU21D;64831;44.870;37.336;2023-02-24T16:50:22;5.49;56.10
76104;HTU21D;64831;44.870;37.336;2023-02-24T16:52:50;5.48;56.43
76104;HTU21D;64831;44.870;37.336;2023-02-24T16:55:16;5.50;56.13
76104;HTU21D;64831;44.870;37.336;2023-02-24T16:57:42;5.50;56.45
76104;HTU21D;64831;44.870;37.336;2023-02-24T17:00:10;5.51;57.23
76104;HTU21D;64831;44.870;37.336;2023-02-24T17:02:38;5.53;57.42
76104;HTU21D;64831;44.870;37.336;2023-02-24T17:05:06;5.56;57.71
76104;HTU21D;64831;44.870;37.336;2023-02-24T17:07:32;5.59;57.64
76104;HTU21D;64831;44.870;37.336;2023-02-24T17:10:04;5.62;57.64
76104;HTU21D;64831;44.870;37.336;2023-02-24T17:12:30;5.62;58.29
76104;HTU21D;64831;44.870;37.336;2023-02-24T17:14:56;5.62;58.79
76104;HTU21D;64831;44.870;37.336;2023-02-24T17:17:23;5.61;59.22
76104;HTU21D;64831;44.870;37.336;2023-02-24T17:19:49;5.64;59.11
76104;HTU21D;64831;44.870;37.336;2023-02-24T17:22:16;5.63;59.32
76104;HTU21D;64831;44.870;37.336;2023-02-24T17:24:42;5.65;59.80
76104;HTU21D;64831;44.870;37.336;2023-02-24T17:27:09;5.67;59.67
76104;HTU21D;64831;44.870;37.336;2023-02-24T17:29:35;5.67;59.53
76104;HTU21D;64831;44.870;37.336;2023-02-24T17:32:01;5.69;59.80
76104;HTU21D;64831;44.870;37.336;2023-02-24T17:34:27;5.69;59.50
76104;HTU21D;64831;44.870;37.336;2023-02-24T17:36:53;5.71;60.25
76104;HTU21D;64831;44.870;37.336;2023-02-24T17:39:19;5.74;59.92
76104;HTU21D;64831;44.870;37.336;2023-02-24T17:41:44;5.75;59.62
76104;HTU21D;64831;44.870;37.336;2023-02-24T17:44:10;5.78;59.51
76104;HTU21D;64831;44.870;37.336;2023-02-24T17:46:36;5.78;59.54
76104;HTU21D;64831;44.870;37.336;2023-02-24T17:49:02;5.80;59.96
76104;HTU21D;64831;44.870;37.336;2023-02-24T17:51:30;5.81;60.04
76104;HTU21D;64831;44.870;37.336;2023-02-24T17:53:56;5.83;60.28
76104;HTU21D;64831;44.870;37.336;2023-02-24T17:56:22;5.85;60.65
76104;HTU21D;64831;44.870;37.336;2023-02-24T17:58:48;5.89;60.94
76104;HTU21D;64831;44.870;37.336;2023-02-24T18:01:14;5.92;60.45
76104;HTU21D;64831;44.870;37.336;2023-02-24T18:03:40;5.94;60.22
76104;HTU21D;64831;44.870;37.336;2023-02-24T18:06:10;5.94;60.47
76104;HTU21D;64831;44.870;37.336;2023-02-24T18:08:38;5.97;60.05
76104;HTU21D;64831;44.870;37.336;2023-02-24T18:11:05;5.97;60.74
76104;HTU21D;64831;44.870;37.336;2023-02-24T18:13:32;6.00;60.62
76104;HTU21D;64831;44.870;37.336;2023-02-24T18:15:59;6.02;60.22
76104;HTU21D;64831;44.870;37.336;2023-02-24T18:18:25;6.04;60.16
76104;HTU21D;64831;44.870;37.336;2023-02-24T18:20:52;6.05;60.60
76104;HTU21D;64831;44.870;37.336;2023-02-24T18:23:18;6.06;60.69
76104;HTU21D;64831;44.870;37.336;2023-02-24T18:25:44;6.06;60.70
76104;HTU21D;64831;44.870;37.336;2023-02-24T18:28:10;6.07;60.93
76104;HTU21D;64831;44.870;37.336;2023-02-24T18:30:38;6.10;60.49
76104;HTU21D;64831;44.870;37.336;2023-02-24T18:33:04;6.12;60.86
76104;HTU21D;64831;44.870;37.336;2023-02-24T18:35:30;6.11;61.05
76104;HTU21D;64831;44.870;37.336;2023-02-24T18:37:56;6.10;60.78
76104;HTU21D;64831;44.870;37.336;2023-02-24T18:40:23;6.13;60.54
76104;HTU21D;64831;44.870;37.336;2023-02-24T18:42:49;6.16;60.20
76104;HTU21D;64831;44.870;37.336;2023-02-24T18:45:17;6.17;59.95
76104;HTU21D;64831;44.870;37.336;2023-02-24T18:47:44;6.19;60.09
76104;HTU21D;64831;44.870;37.336;2023-02-24T18:50:11;6.19;59.96
76104;HTU21D;64831;44.870;37.336;2023-02-24T18:52:37;6.20;60.93
76104;HTU21D;64831;44.870;37.336;2023-02-24T18:55:03;6.21;60.45
76104;HTU21D;64831;44.870;37.336;2023-02-24T18:57:29;6.21;60.34
76104;HTU21D;64831;44.870;37.336;2023-02-24T18:59:55;6.24;60.53
76104;HTU21D;64831;44.870;37.336;2023-02-24T19:02:21;6.24;60.34
76104;HTU21D;64831;44.870;37.336;2023-02-24T19:04:47;6.24;60.24
76104;HTU21D;64831;44.870;37.336;2023-02-24T19:07:13;6.23;60.19
76104;HTU21D;64831;44.870;37.336;2023-02-24T19:09:39;6.23;59.96
76104;HTU21D;64831;44.870;37.336;2023-02-24T19:12:05;6.24;59.88
76104;HTU21D;64831;44.870;37.336;2023-02-24T19:14:31;6.25;59.73
76104;HTU21D;64831;44.870;37.336;2023-02-24T19:16:57;6.27;59.57
76104;HTU21D;64831;44.870;37.336;2023-02-24T19:19:25;6.28;59.63
76104;HTU21D;64831;44.870;37.336;2023-02-24T19:21:51;6.28;59.38
76104;HTU21D;64831;44.870;37.336;2023-02-24T19:24:17;6.29;59.06
76104;HTU21D;64831;44.870;37.336;2023-02-24T19:26:44;6.29;58.65
76104;HTU21D;64831;44.870;37.336;2023-02-24T19:29:12;6.33;58.54
76104;HTU21D;64831;44.870;37.336;2023-02-24T19:31:39;6.36;58.53
76104;HTU21D;64831;44.870;37.336;2023-02-24T19:34:10;6.38;58.44
76104;HTU21D;64831;44.870;37.336;2023-02-24T19:36:37;6.38;57.85
76104;HTU21D;64831;44.870;37.336;2023-02-24T19:39:04;6.41;57.67
76104;HTU21D;64831;44.870;37.336;2023-02-24T19:41:33;6.43;57.56